CU-0037 weather

Guaicanamar Airport
Camag├╝ey, Cuba

Public forecast

Using degrees Celsius for public forecast. Weather courtesy of forecast.io.

METAR (pilot weather report)

Closest report is Ignacio Agramonte International Airport, 31.5 nm (58.4 km) N. Retrieved 2019/05/21 11:50 UTC (31 minutes ago):

MUCM 211150Z 04004KT 9000 FEW020 23/23 Q1014

TAF (pilot weather forecast)

Closest forecast is Ignacio Agramonte International Airport, 31.5 nm (58.4 km) N. Retrieved 2019/05/21 12:07 UTC (14 minutes ago):

TAF MUCM 211100Z 2112/2212 VRB03KT 9000 FEW020 BECMG 2117/2119 05008KT BKN020 TEMPO 2120/2201 VRB15KT 3000 TSRA SCT018CB BECMG 2202/2204 VRB03KT FEW020